Time;durP1;ratioP1;P1;durP2;ratioP2;P2;SDS_P1;SDS_P2;PMS_P1;PMS_P2;Temp;Humidity;BMP_temperature;BMP_pressure;BME280_temperature;BME280_humidity;BME280_pressure;Samples;Min_cycle;Max_cycle;Signal;HPM_P1;HPM_P2
2022/04/24 00:02:12;;;;;;;9.60;4.15;;;;;;;;;;10437514;28;20033;-50
2022/04/24 00:07:13;;;;;;;9.73;4.40;;;;;;;;;;10434778;28;20087;-54
2022/04/24 00:12:16;;;;;;;8.90;4.38;;;;;;;;;;10416289;28;20097;-55
2022/04/24 00:17:20;;;;;;;11.70;4.80;;;;;;;;;;10431282;28;20033;-51
2022/04/24 00:22:20;;;;;;;8.00;4.53;;;;;;;;;;10431470;28;20035;-47
2022/04/24 00:27:21;;;;;;;7.13;4.38;;;;;;;;;;10428250;28;20499;-48
2022/04/24 00:32:21;;;;;;;7.75;4.35;;;;;;;;;;10428923;28;20037;-49
2022/04/24 00:37:22;;;;;;;11.40;4.53;;;;;;;;;;10435184;28;20511;-51
2022/04/24 00:42:23;;;;;;;6.45;4.35;;;;;;;;;;10434173;28;20495;-50
2022/04/24 00:47:23;;;;;;;5.40;3.75;;;;;;;;;;10430245;28;20112;-54
2022/04/24 00:52:24;;;;;;;13.50;4.60;;;;;;;;;;10439321;28;20033;-50
2022/04/24 00:57:25;;;;;;;8.32;4.22;;;;;;;;;;10426878;28;20045;-51
2022/04/24 01:02:26;;;;;;;10.45;4.63;;;;;;;;;;10427467;28;20029;-52
2022/04/24 01:07:26;;;;;;;11.05;4.20;;;;;;;;;;10432064;28;20029;-50
2022/04/24 01:12:27;;;;;;;10.68;3.80;;;;;;;;;;10429998;28;20075;-47
2022/04/24 01:17:28;;;;;;;11.45;3.92;;;;;;;;;;10441092;28;20029;-47
2022/04/24 01:22:29;;;;;;;6.20;3.58;;;;;;;;;;10434517;28;20040;-52
2022/04/24 01:27:29;;;;;;;6.82;3.95;;;;;;;;;;10426933;28;20025;-58
2022/04/24 01:32:30;;;;;;;6.05;4.03;;;;;;;;;;10435097;28;20492;-58
2022/04/24 01:37:30;;;;;;;8.68;3.40;;;;;;;;;;10448035;28;20025;-57
2022/04/24 01:42:31;;;;;;;5.97;3.75;;;;;;;;;;10450950;28;20032;-59
2022/04/24 01:47:31;;;;;;;6.93;3.63;;;;;;;;;;10452933;28;20028;-58
2022/04/24 01:52:32;;;;;;;6.35;3.38;;;;;;;;;;10452190;28;20064;-54
2022/04/24 01:57:33;;;;;;;6.78;3.88;;;;;;;;;;10461779;28;20094;-58
2022/04/24 02:02:33;;;;;;;8.38;3.88;;;;;;;;;;10437452;28;20508;-59
2022/04/24 02:07:34;;;;;;;5.50;3.45;;;;;;;;;;10419818;28;20604;-57
2022/04/24 02:12:40;;;;;;;5.43;3.45;;;;;;;;;;10416965;28;20489;-58
2022/04/24 02:17:40;;;;;;;9.07;3.90;;;;;;;;;;10418955;28;20036;-58
2022/04/24 02:22:42;;;;;;;12.73;4.05;;;;;;;;;;10439663;28;20025;-57
2022/04/24 02:27:42;;;;;;;4.97;3.33;;;;;;;;;;10439977;28;20033;-54
2022/04/24 02:32:44;;;;;;;9.05;3.10;;;;;;;;;;10450978;28;20500;-55
2022/04/24 02:37:44;;;;;;;7.10;3.13;;;;;;;;;;10444229;28;20036;-50
2022/04/24 02:42:45;;;;;;;8.55;3.50;;;;;;;;;;10437394;28;20025;-49
2022/04/24 02:47:47;;;;;;;5.82;3.10;;;;;;;;;;10429529;28;20034;-52
2022/04/24 02:52:49;;;;;;;6.65;2.92;;;;;;;;;;10432114;28;20392;-51
2022/04/24 02:57:50;;;;;;;8.10;3.13;;;;;;;;;;10451849;28;20046;-48
2022/04/24 03:02:52;;;;;;;13.38;3.50;;;;;;;;;;10451418;28;20471;-50
2022/04/24 03:07:53;;;;;;;16.35;3.20;;;;;;;;;;10452010;28;20047;-48
2022/04/24 03:12:53;;;;;;;9.13;3.40;;;;;;;;;;10451400;28;20029;-52
2022/04/24 03:17:54;;;;;;;10.73;3.10;;;;;;;;;;10433501;28;20024;-54
2022/04/24 03:22:55;;;;;;;9.70;3.10;;;;;;;;;;10451025;28;20492;-49
2022/04/24 03:27:56;;;;;;;6.07;3.25;;;;;;;;;;10450885;28;20094;-57
2022/04/24 03:32:56;;;;;;;5.30;2.83;;;;;;;;;;10450774;28;20017;-56
2022/04/24 03:37:57;;;;;;;4.80;3.05;;;;;;;;;;10450293;28;20032;-57
2022/04/24 03:42:57;;;;;;;8.32;3.13;;;;;;;;;;10450780;28;20376;-59
2022/04/24 03:47:58;;;;;;;3.47;2.65;;;;;;;;;;10450061;28;20511;-58
2022/04/24 03:52:58;;;;;;;6.57;3.20;;;;;;;;;;10450240;28;20040;-58
2022/04/24 03:58:00;;;;;;;4.25;3.10;;;;;;;;;;10449911;28;20061;-57
2022/04/24 04:03:00;;;;;;;3.28;2.70;;;;;;;;;;10449870;28;20100;-59
2022/04/24 04:08:01;;;;;;;4.18;2.83;;;;;;;;;;10450273;28;20029;-58
2022/04/24 04:13:06;;;;;;;5.03;2.70;;;;;;;;;;10449704;28;20032;-58
2022/04/24 04:18:07;;;;;;;5.35;2.63;;;;;;;;;;10449737;28;20029;-59
2022/04/24 04:23:08;;;;;;;5.53;2.83;;;;;;;;;;10449603;28;20029;-58
2022/04/24 04:28:08;;;;;;;3.30;2.38;;;;;;;;;;10449202;28;20035;-49
2022/04/24 04:33:12;;;;;;;5.50;3.00;;;;;;;;;;10449044;28;20480;-49
2022/04/24 04:38:14;;;;;;;8.07;2.45;;;;;;;;;;10449482;28;20025;-50
2022/04/24 04:43:14;;;;;;;7.50;2.83;;;;;;;;;;10448802;28;20186;-49
2022/04/24 04:48:15;;;;;;;4.05;2.53;;;;;;;;;;10449026;28;20104;-57
2022/04/24 04:53:15;;;;;;;3.10;2.25;;;;;;;;;;10448530;28;20092;-52
2022/04/24 04:58:17;;;;;;;8.90;2.90;;;;;;;;;;10453329;28;20055;-53
2022/04/24 05:03:17;;;;;;;4.70;2.75;;;;;;;;;;10456501;28;20049;-53
2022/04/24 05:08:18;;;;;;;2.67;2.22;;;;;;;;;;10456664;28;20033;-51
2022/04/24 05:13:19;;;;;;;4.55;2.35;;;;;;;;;;10456004;28;20059;-50
2022/04/24 05:18:20;;;;;;;3.75;2.53;;;;;;;;;;10455769;28;20071;-51
2022/04/24 05:23:20;;;;;;;6.13;2.60;;;;;;;;;;10464610;28;20067;-48
2022/04/24 05:28:21;;;;;;;6.15;2.50;;;;;;;;;;10455378;28;20031;-49
2022/04/24 05:33:22;;;;;;;2.30;2.10;;;;;;;;;;10445777;28;20068;-49
2022/04/24 05:38:22;;;;;;;2.85;2.38;;;;;;;;;;10455164;28;20029;-50
2022/04/24 05:43:23;;;;;;;2.40;2.20;;;;;;;;;;10451721;28;20128;-49
2022/04/24 05:48:23;;;;;;;3.97;2.67;;;;;;;;;;10449945;28;20522;-48
2022/04/24 05:53:24;;;;;;;2.97;2.10;;;;;;;;;;10453389;28;20024;-51
2022/04/24 05:58:24;;;;;;;7.07;2.58;;;;;;;;;;10453502;28;20041;-49
2022/04/24 06:03:25;;;;;;;4.03;2.45;;;;;;;;;;10448666;28;20029;-49
2022/04/24 06:08:26;;;;;;;2.63;2.15;;;;;;;;;;10452379;28;20044;-54
2022/04/24 06:13:27;;;;;;;5.13;2.30;;;;;;;;;;10449067;28;20033;-51
2022/04/24 06:18:28;;;;;;;3.97;2.40;;;;;;;;;;10452240;28;20086;-52
2022/04/24 06:23:30;;;;;;;3.85;2.10;;;;;;;;;;10453484;28;20028;-51
2022/04/24 06:28:30;;;;;;;2.88;1.98;;;;;;;;;;10450205;28;20036;-48
2022/04/24 06:33:31;;;;;;;3.28;2.17;;;;;;;;;;10453267;28;20400;-49
2022/04/24 06:38:32;;;;;;;3.35;2.22;;;;;;;;;;10445554;28;20392;-50
2022/04/24 06:43:32;;;;;;;3.17;2.05;;;;;;;;;;10451882;28;20041;-49
2022/04/24 06:48:33;;;;;;;3.10;1.83;;;;;;;;;;10451238;28;20049;-50
2022/04/24 06:53:35;;;;;;;6.15;3.08;;;;;;;;;;10451161;28;20481;-49
2022/04/24 06:58:36;;;;;;;3.50;1.88;;;;;;;;;;10450301;28;20485;-49
2022/04/24 07:03:37;;;;;;;4.00;2.15;;;;;;;;;;10452002;28;20025;-48
2022/04/24 07:08:38;;;;;;;2.35;1.90;;;;;;;;;;10450052;28;20033;-50
2022/04/24 07:13:40;;;;;;;2.70;2.00;;;;;;;;;;10447808;28;20029;-50
2022/04/24 07:18:41;;;;;;;2.03;1.70;;;;;;;;;;10450287;28;20033;-51
2022/04/24 07:23:41;;;;;;;3.15;1.85;;;;;;;;;;10450347;28;20033;-49
2022/04/24 07:28:42;;;;;;;3.35;1.88;;;;;;;;;;10432592;28;20032;-57
2022/04/24 07:33:43;;;;;;;4.90;1.80;;;;;;;;;;10450478;28;20096;-50
2022/04/24 07:38:43;;;;;;;2.47;1.70;;;;;;;;;;10412976;28;20029;-54
2022/04/24 07:43:48;;;;;;;3.30;1.60;;;;;;;;;;10449994;28;20028;-57
2022/04/24 07:48:49;;;;;;;3.17;1.92;;;;;;;;;;10448287;28;20162;-57
2022/04/24 07:53:49;;;;;;;1.80;1.65;;;;;;;;;;10450219;28;20155;-55
2022/04/24 07:58:50;;;;;;;2.45;1.90;;;;;;;;;;10446073;28;20052;-57
2022/04/24 08:03:50;;;;;;;3.50;1.70;;;;;;;;;;10447773;28;20025;-59
2022/04/24 08:08:51;;;;;;;5.38;1.88;;;;;;;;;;10449642;28;20044;-58
2022/04/24 08:13:52;;;;;;;4.85;1.55;;;;;;;;;;10444157;28;20036;-58
2022/04/24 08:18:53;;;;;;;16.30;1.70;;;;;;;;;;10449156;28;20035;-60
2022/04/24 08:23:53;;;;;;;2.75;1.70;;;;;;;;;;10448162;28;20464;-58
2022/04/24 08:28:54;;;;;;;12.75;1.83;;;;;;;;;;10448401;28;20037;-51
2022/04/24 08:33:57;;;;;;;8.90;1.75;;;;;;;;;;10452543;28;20040;-55
2022/04/24 08:38:58;;;;;;;12.38;2.53;;;;;;;;;;10435136;28;20033;-51
2022/04/24 08:44:00;;;;;;;14.23;2.00;;;;;;;;;;10442893;28;20432;-54
2022/04/24 08:49:02;;;;;;;16.95;2.33;;;;;;;;;;10404227;28;20437;-53
2022/04/24 08:54:03;;;;;;;5.20;1.60;;;;;;;;;;10423349;28;20044;-53
2022/04/24 08:59:04;;;;;;;17.52;2.25;;;;;;;;;;10429353;28;20065;-51
2022/04/24 09:04:04;;;;;;;13.25;2.38;;;;;;;;;;10433488;28;20029;-54
2022/04/24 09:09:06;;;;;;;31.50;2.40;;;;;;;;;;10430023;28;20032;-54
2022/04/24 09:14:15;;;;;;;17.73;1.88;;;;;;;;;;10454657;28;20571;-53
2022/04/24 09:19:23;;;;;;;7.45;1.80;;;;;;;;;;10446041;28;20152;-58
2022/04/24 09:24:38;;;;;;;14.60;1.90;;;;;;;;;;10442434;28;20068;-58
2022/04/24 09:29:40;;;;;;;9.20;1.30;;;;;;;;;;10441643;28;20040;-48
2022/04/24 09:34:41;;;;;;;4.85;1.60;;;;;;;;;;10438296;28;20043;-56
2022/04/24 09:39:41;;;;;;;4.13;1.52;;;;;;;;;;10435702;28;20045;-52
2022/04/24 09:44:51;;;;;;;9.60;1.92;;;;;;;;;;10437259;28;20037;-57
2022/04/24 09:49:53;;;;;;;3.22;1.50;;;;;;;;;;10437880;28;20108;-57
2022/04/24 09:54:55;;;;;;;5.70;1.80;;;;;;;;;;10414857;28;20489;-58
2022/04/24 09:59:56;;;;;;;6.97;1.42;;;;;;;;;;10424583;28;20047;-56
2022/04/24 10:04:57;;;;;;;3.35;1.33;;;;;;;;;;10424072;28;20040;-54
2022/04/24 10:09:59;;;;;;;5.50;1.75;;;;;;;;;;10422089;28;20487;-56
2022/04/24 10:15:06;;;;;;;7.18;1.30;;;;;;;;;;10406410;28;20046;-56
2022/04/24 10:20:47;;;;;;;6.45;1.42;;;;;;;;;;10419688;28;20481;-54
2022/04/24 10:25:48;;;;;;;9.25;1.50;;;;;;;;;;10432843;28;20036;-54
2022/04/24 10:31:03;;;;;;;4.07;1.60;;;;;;;;;;10423178;28;20035;-51
2022/04/24 10:36:14;;;;;;;1.48;1.15;;;;;;;;;;10416384;28;20041;-60
2022/04/24 10:41:19;;;;;;;3.60;1.58;;;;;;;;;;10412186;28;20025;-52
2022/04/24 10:46:29;;;;;;;4.43;1.20;;;;;;;;;;10444095;28;20206;-55
2022/04/24 10:51:31;;;;;;;2.30;1.17;;;;;;;;;;10440503;28;20040;-53
2022/04/24 10:56:32;;;;;;;3.38;1.30;;;;;;;;;;10426702;28;20049;-57
2022/04/24 11:01:35;;;;;;;3.88;1.40;;;;;;;;;;10442855;28;20044;-51
2022/04/24 11:06:36;;;;;;;2.30;1.23;;;;;;;;;;10448840;28;20542;-56
2022/04/24 11:12:07;;;;;;;2.15;1.38;;;;;;;;;;10448851;28;20078;-54
2022/04/24 11:17:07;;;;;;;4.55;1.23;;;;;;;;;;10446761;28;20035;-52
2022/04/24 11:22:10;;;;;;;3.85;1.20;;;;;;;;;;10449400;28;20354;-61
2022/04/24 11:27:13;;;;;;;4.63;1.40;;;;;;;;;;10449368;28;20044;-60
2022/04/24 11:32:14;;;;;;;3.35;1.27;;;;;;;;;;10432004;28;20394;-61
2022/04/24 11:37:14;;;;;;;3.80;1.10;;;;;;;;;;10450317;28;20054;-61
2022/04/24 11:42:15;;;;;;;2.20;1.17;;;;;;;;;;10441210;28;20029;-57
2022/04/24 11:52:36;;;;;;;1.52;1.30;;;;;;;;;;10439230;28;20033;-55
2022/04/24 11:57:37;;;;;;;3.88;1.13;;;;;;;;;;10440080;28;20135;-61
2022/04/24 12:02:38;;;;;;;1.63;1.00;;;;;;;;;;10418049;28;20055;-51
2022/04/24 12:07:38;;;;;;;2.92;1.20;;;;;;;;;;10435878;28;20548;-59
2022/04/24 12:12:48;;;;;;;6.28;1.20;;;;;;;;;;10421767;28;20037;-51
2022/04/24 12:17:54;;;;;;;2.65;1.20;;;;;;;;;;10435534;28;20033;-53
2022/04/24 12:22:55;;;;;;;2.75;1.58;;;;;;;;;;10432939;28;20033;-53
2022/04/24 12:27:57;;;;;;;1.10;1.00;;;;;;;;;;10427391;28;20094;-60
2022/04/24 12:33:08;;;;;;;1.10;0.95;;;;;;;;;;10437456;28;20029;-58
2022/04/24 12:38:16;;;;;;;1.23;1.13;;;;;;;;;;10423310;28;20025;-56
2022/04/24 12:43:27;;;;;;;1.23;1.13;;;;;;;;;;10444332;28;20032;-56
2022/04/24 12:48:29;;;;;;;1.48;1.15;;;;;;;;;;10425660;28;20091;-52
2022/04/24 12:53:29;;;;;;;3.05;1.25;;;;;;;;;;10427573;28;20091;-54
2022/04/24 12:58:30;;;;;;;2.05;1.10;;;;;;;;;;10437355;28;20489;-55
2022/04/24 13:03:31;;;;;;;1.17;1.08;;;;;;;;;;10414963;28;20044;-59
2022/04/24 13:08:31;;;;;;;1.25;1.15;;;;;;;;;;10405858;28;20451;-53
2022/04/24 13:13:33;;;;;;;1.27;0.98;;;;;;;;;;10415357;28;20384;-55
2022/04/24 13:18:33;;;;;;;2.92;1.00;;;;;;;;;;10417079;28;20029;-51
2022/04/24 13:23:34;;;;;;;1.13;1.02;;;;;;;;;;10417551;28;20366;-55
2022/04/24 13:28:36;;;;;;;0.98;0.90;;;;;;;;;;10421495;28;20044;-51
2022/04/24 13:33:36;;;;;;;3.55;0.80;;;;;;;;;;10439173;28;20025;-52
2022/04/24 13:38:39;;;;;;;0.80;0.80;;;;;;;;;;10446326;28;20473;-51
2022/04/24 13:43:40;;;;;;;3.15;0.93;;;;;;;;;;10419057;28;20040;-59
2022/04/24 13:48:40;;;;;;;1.48;1.05;;;;;;;;;;10442589;28;20404;-51
2022/04/24 13:53:41;;;;;;;3.42;1.17;;;;;;;;;;10438033;28;20033;-58
2022/04/24 13:58:42;;;;;;;9.75;1.30;;;;;;;;;;10380212;28;20045;-54
2022/04/24 14:03:43;;;;;;;2.88;1.15;;;;;;;;;;10379958;28;20033;-57
2022/04/24 14:08:44;;;;;;;2.67;1.17;;;;;;;;;;10395890;28;20075;-54
2022/04/24 14:13:44;;;;;;;5.30;0.88;;;;;;;;;;10404753;28;20064;-55
2022/04/24 14:18:45;;;;;;;2.45;0.90;;;;;;;;;;10401504;28;20080;-53
2022/04/24 14:23:46;;;;;;;3.70;1.02;;;;;;;;;;10393758;28;20026;-53
2022/04/24 14:28:47;;;;;;;4.35;1.20;;;;;;;;;;10389025;28;20042;-60
2022/04/24 14:33:47;;;;;;;5.13;1.05;;;;;;;;;;10389345;28;20021;-61
2022/04/24 14:38:48;;;;;;;3.58;1.00;;;;;;;;;;10402715;28;20022;-61
2022/04/24 14:43:49;;;;;;;2.25;1.00;;;;;;;;;;10387733;28;20095;-62
2022/04/24 14:59:28;;;;;;;2.17;0.90;;;;;;;;;;10414104;28;20049;-52
2022/04/24 15:04:29;;;;;;;2.17;1.10;;;;;;;;;;10422550;28;20040;-59
2022/04/24 15:09:30;;;;;;;5.45;1.10;;;;;;;;;;10422735;28;20063;-54
2022/04/24 15:14:31;;;;;;;2.42;1.10;;;;;;;;;;10431698;28;20448;-53
2022/04/24 15:19:32;;;;;;;4.13;1.30;;;;;;;;;;10429302;28;20033;-55
2022/04/24 15:24:33;;;;;;;1.10;1.00;;;;;;;;;;10439438;28;20029;-54
2022/04/24 15:29:34;;;;;;;1.35;1.10;;;;;;;;;;10433540;28;20033;-57
2022/04/24 15:34:34;;;;;;;4.63;0.90;;;;;;;;;;10438493;28;20120;-55
2022/04/24 15:39:35;;;;;;;6.57;0.85;;;;;;;;;;10423586;28;20492;-54
2022/04/24 15:50:09;;;;;;;15.05;1.90;;;;;;;;;;10384470;28;20049;-60
2022/04/24 15:55:12;;;;;;;13.70;1.45;;;;;;;;;;10423775;28;20049;-62
2022/04/24 16:00:15;;;;;;;11.73;1.83;;;;;;;;;;10443152;28;20414;-60
2022/04/24 16:05:15;;;;;;;14.45;1.65;;;;;;;;;;10433896;28;20064;-50
2022/04/24 16:10:16;;;;;;;4.75;1.48;;;;;;;;;;10433158;28;20116;-52
2022/04/24 16:15:17;;;;;;;14.73;1.70;;;;;;;;;;10448196;28;20029;-53
2022/04/24 16:20:18;;;;;;;16.60;2.10;;;;;;;;;;10442091;28;20040;-50
2022/04/24 16:25:22;;;;;;;9.05;2.20;;;;;;;;;;10431484;28;20025;-58
2022/04/24 16:30:23;;;;;;;12.88;1.70;;;;;;;;;;10423425;28;20083;-54
2022/04/24 16:35:23;;;;;;;16.60;1.67;;;;;;;;;;10426325;28;20045;-52
2022/04/24 16:40:25;;;;;;;12.30;1.70;;;;;;;;;;10434751;28;20071;-54
2022/04/24 16:45:26;;;;;;;8.32;1.92;;;;;;;;;;10434487;28;20385;-63
2022/04/24 17:01:05;;;;;;;6.90;1.38;;;;;;;;;;10439059;28;20033;-56
2022/04/24 17:06:06;;;;;;;8.60;1.50;;;;;;;;;;10438247;28;20028;-61
2022/04/24 17:11:09;;;;;;;9.98;1.70;;;;;;;;;;10438985;28;20040;-54
2022/04/24 17:16:10;;;;;;;13.75;1.73;;;;;;;;;;10435872;28;20060;-64
2022/04/24 17:21:11;;;;;;;13.73;1.70;;;;;;;;;;10443204;28;20542;-64
2022/04/24 17:26:14;;;;;;;4.90;1.48;;;;;;;;;;10437312;28;20044;-54
2022/04/24 17:31:15;;;;;;;6.28;1.50;;;;;;;;;;10447964;28;20049;-59
2022/04/24 17:36:15;;;;;;;6.30;1.67;;;;;;;;;;10431102;28;20021;-64
2022/04/24 17:41:16;;;;;;;2.45;1.30;;;;;;;;;;10445517;28;20037;-64
2022/04/24 17:46:17;;;;;;;3.78;1.42;;;;;;;;;;10431842;28;20029;-55
2022/04/24 17:51:18;;;;;;;2.67;1.38;;;;;;;;;;10430173;28;20063;-55
2022/04/24 17:56:20;;;;;;;7.68;1.40;;;;;;;;;;10437635;28;20056;-63
2022/04/24 18:01:21;;;;;;;11.98;1.83;;;;;;;;;;10437403;28;20500;-56
2022/04/24 18:06:22;;;;;;;4.25;1.30;;;;;;;;;;10437607;28;20025;-54
2022/04/24 18:11:25;;;;;;;2.65;1.10;;;;;;;;;;10428479;28;20033;-54
2022/04/24 18:16:26;;;;;;;3.85;1.30;;;;;;;;;;10414022;28;20034;-55
2022/04/24 18:21:26;;;;;;;6.38;1.27;;;;;;;;;;10439656;28;20033;-55
2022/04/24 18:26:28;;;;;;;5.88;1.15;;;;;;;;;;10434713;28;20052;-64
2022/04/24 18:31:30;;;;;;;4.72;1.08;;;;;;;;;;10439674;28;20068;-53
2022/04/24 18:41:49;;;;;;;3.55;1.13;;;;;;;;;;10434465;28;20037;-64
2022/04/24 18:46:50;;;;;;;2.22;1.00;;;;;;;;;;10431234;28;20037;-61
2022/04/24 18:51:51;;;;;;;2.58;1.15;;;;;;;;;;10433826;28;20037;-56
2022/04/24 18:56:52;;;;;;;9.38;1.35;;;;;;;;;;10441321;28;20136;-57
2022/04/24 19:01:53;;;;;;;2.70;1.42;;;;;;;;;;10433416;28;20036;-56
2022/04/24 19:12:12;;;;;;;1.40;1.23;;;;;;;;;;10433261;28;20112;-64
2022/04/24 19:17:13;;;;;;;4.32;1.20;;;;;;;;;;10406496;28;20025;-54
2022/04/24 19:22:15;;;;;;;1.27;0.93;;;;;;;;;;10412876;28;20036;-59
2022/04/24 19:27:16;;;;;;;1.90;1.00;;;;;;;;;;10417499;28;20558;-54
2022/04/24 19:32:18;;;;;;;1.63;1.02;;;;;;;;;;10437604;28;20083;-57
2022/04/24 19:37:18;;;;;;;2.78;1.10;;;;;;;;;;10431308;28;20071;-54
2022/04/24 19:42:19;;;;;;;2.55;1.25;;;;;;;;;;10434651;28;20039;-56
2022/04/24 19:47:20;;;;;;;2.78;1.05;;;;;;;;;;10432694;28;20025;-60
2022/04/24 19:52:21;;;;;;;2.10;1.13;;;;;;;;;;10433059;28;20407;-55
2022/04/24 19:57:21;;;;;;;1.27;0.90;;;;;;;;;;10433656;28;20049;-54
2022/04/24 20:02:22;;;;;;;1.10;1.00;;;;;;;;;;10439469;28;20033;-60
2022/04/24 20:07:22;;;;;;;1.50;1.10;;;;;;;;;;10426920;28;20029;-57
2022/04/24 20:12:26;;;;;;;2.92;1.17;;;;;;;;;;10436078;28;20075;-56
2022/04/24 20:17:26;;;;;;;2.20;1.00;;;;;;;;;;10428287;28;20033;-57
2022/04/24 20:22:27;;;;;;;0.93;0.80;;;;;;;;;;10431899;28;20392;-60
2022/04/24 20:27:28;;;;;;;3.95;1.05;;;;;;;;;;10425389;28;20025;-52
2022/04/24 20:32:29;;;;;;;4.28;0.90;;;;;;;;;;10429679;28;20029;-52
2022/04/24 20:37:30;;;;;;;2.05;0.82;;;;;;;;;;10431026;28;20088;-54
2022/04/24 20:42:31;;;;;;;1.13;0.90;;;;;;;;;;10441152;28;20048;-54
2022/04/24 20:47:33;;;;;;;6.47;1.10;;;;;;;;;;10428077;28;20033;-53
2022/04/24 20:52:33;;;;;;;1.42;1.10;;;;;;;;;;10433228;28;20717;-54
2022/04/24 20:57:34;;;;;;;1.58;1.17;;;;;;;;;;10437756;28;20107;-55
2022/04/24 21:02:35;;;;;;;2.00;0.93;;;;;;;;;;10433860;28;20488;-55
2022/04/24 21:07:38;;;;;;;1.17;1.08;;;;;;;;;;10435990;28;20038;-55
2022/04/24 21:12:39;;;;;;;1.58;1.10;;;;;;;;;;10428066;28;20397;-55
2022/04/24 21:17:40;;;;;;;1.30;0.90;;;;;;;;;;10429264;28;20047;-54
2022/04/24 21:22:40;;;;;;;1.75;1.10;;;;;;;;;;10418269;28;20028;-54
2022/04/24 21:27:41;;;;;;;0.95;0.93;;;;;;;;;;10427881;28;20036;-54
2022/04/24 21:32:42;;;;;;;1.10;0.98;;;;;;;;;;10431981;28;20037;-56
2022/04/24 21:37:42;;;;;;;2.05;1.17;;;;;;;;;;10430978;28;20041;-55
2022/04/24 21:42:43;;;;;;;0.88;0.80;;;;;;;;;;10436855;28;20029;-55
2022/04/24 21:47:43;;;;;;;1.38;1.00;;;;;;;;;;10441000;28;20075;-51
2022/04/24 21:52:44;;;;;;;0.90;0.90;;;;;;;;;;10439549;28;20037;-56
2022/04/24 21:57:44;;;;;;;0.98;0.90;;;;;;;;;;10436214;28;20045;-55
2022/04/24 22:08:04;;;;;;;1.13;0.90;;;;;;;;;;10429502;28;20069;-56
2022/04/24 22:13:06;;;;;;;1.80;1.02;;;;;;;;;;10431576;28;20490;-60
2022/04/24 22:18:06;;;;;;;1.25;1.00;;;;;;;;;;10435771;28;20025;-60
2022/04/24 22:28:26;;;;;;;1.27;1.00;;;;;;;;;;10430375;28;20029;-60
2022/04/24 22:33:27;;;;;;;1.00;0.90;;;;;;;;;;10439255;28;20040;-65
2022/04/24 22:38:28;;;;;;;4.97;1.00;;;;;;;;;;10430158;28;20032;-62
2022/04/24 22:43:28;;;;;;;1.52;1.05;;;;;;;;;;10437444;28;20025;-63
2022/04/24 22:48:29;;;;;;;9.95;1.38;;;;;;;;;;10440525;28;20037;-64
2022/04/24 22:53:30;;;;;;;7.65;1.40;;;;;;;;;;10440552;28;20082;-59
2022/04/24 22:58:30;;;;;;;2.65;1.20;;;;;;;;;;10440076;28;21392;-63
2022/04/24 23:03:31;;;;;;;1.70;1.10;;;;;;;;;;10439279;28;20574;-64
2022/04/24 23:08:32;;;;;;;4.68;1.15;;;;;;;;;;10432581;28;20035;-64
2022/04/24 23:13:32;;;;;;;4.82;1.10;;;;;;;;;;10432311;28;20075;-63
2022/04/24 23:23:52;;;;;;;2.40;1.00;;;;;;;;;;10426484;28;20536;-64
2022/04/24 23:28:53;;;;;;;5.30;1.02;;;;;;;;;;10432851;28;20033;-63
2022/04/24 23:33:53;;;;;;;2.58;0.95;;;;;;;;;;10423506;28;20048;-63
2022/04/24 23:38:54;;;;;;;1.92;0.90;;;;;;;;;;10432963;28;20037;-64
2022/04/24 23:43:54;;;;;;;2.22;1.15;;;;;;;;;;10437217;28;20095;-66
2022/04/24 23:48:55;;;;;;;1.27;0.80;;;;;;;;;;10423860;28;20032;-61
2022/04/24 23:53:55;;;;;;;1.60;1.00;;;;;;;;;;10434684;28;20025;-63
2022/04/24 23:58:56;;;;;;;3.85;1.10;;;;;;;;;;10438244;28;20064;-58
